Prince George, Canada
Current Conditions -  °F | °C
As of 12:00 AM on Saturday 25 Oct 2014 (Local Time) from CYXS Reporting Station
Clear Clear  
Wind Chill: 21°   Ceiling: Unl
Heat Index: 27°   Visibility: 9mi
Dew Point: 23°   Wind: 5mph
Humidity: 86%   Direction: 360°N
Pressure: 29.94"   Gusts: NA
Location:  53.91°N, 122.75°W
Report Text: CYXS 250700Z AUTO 36004KT 9SM CLR M03/M05 A2994 RMK SLP168
Loading
Personal Weather Stations






























Interactive Weather Map
Tropical Storm Tracking
New forecast layout! Learn more

10-Day Weather Forecast

Advertisements
Track Severe Weather on mobile